Terminal Aerodrome Forecast
Issued by NWS El Paso, TX

Home | Current Version | Previous Version | Text Only | Print | Product List | Glossary On
Versions: 1 2 3 4 5 6 7 8 9 10 11 12 13 14 15 16 17 18 19 20 21 22
000
FTUS44 KEPZ 201100
TAFELP
TAF
KELP 201120Z 2012/2112 04010KT P6SM FEW015 SCT040 BKN120
     FM201800 09011KT P6SM VCTS SCT020 BKN050CB
      TEMPO 2020/2024 2SM TSRA BKN030CB
     FM210300 05008KT P6SM SCT020 BKN050=

USA.gov is the U.S. government's official web portal to all federal, state and local government web resources and services.